Latest Weather Observations for Bendigo

IDV60801

Issued at 1:02 pm EDT Thursday 23 February 2017 (issued every 30 minutes, with the page automatically refreshed every 10 minutes)

About weather observations | Map of weather stations | Latest weather observations for VIC | Other Formats
Station Details ID: 081123 Name: BENDIGO AIRPORT Lat: -36.74 Lon: 144.33 Height: 208.0 m
Data from the previous 72 hours. | See also: Recent months at Bendigo
Date/Time
EDT
Temp
°C
App
Temp
°C
Dew
Point
°C
Rel
Hum
%
Delta-T
°C
Wind Press
QNH
hPa
Press
MSL
hPa
Rain since
9am
mm
Dir  Spd
km/h
Gust
km/h
Spd
kts
Gust
kts
23/12:30pm 25.2 23.9 9.9 38 8.5 SW 7 19 4 10 1017.9 1017.0 0.0
23/12:00pm 24.7 23.0 9.8 39 8.2 WSW 9 20 5 11 1018.1 1017.3 0.0
23/11:30am 23.3 21.2 9.7 42 7.5 SW 11 17 6 9 1018.0 1017.2 0.0
23/11:00am 23.0 20.7 9.0 41 7.6 WSW 11 17 6 9 1017.8 1016.9 0.0
23/10:30am 22.5 20.7 9.3 43 7.2 WSW 9 17 5 9 1017.6 1016.7 0.0
23/10:00am 21.1 19.3 9.4 47 6.3 SW 9 17 5 9 1017.5 1016.6 0.0
23/09:30am 20.0 18.2 9.3 50 5.7 SW 9 13 5 7 1017.2 1016.3 0.0
23/09:00am 18.9 16.8 9.7 55 4.9 SW 11 15 6 8 1016.9 1016.0 0.0
23/08:30am 18.0 15.8 9.4 57 4.6 WSW 11 17 6 9 1016.4 1015.6 0.0
23/08:00am 16.7 14.6 8.1 57 4.4 WSW 9 13 5 7 1016.0 1015.2 0.0
23/07:30am 13.7 11.9 7.0 64 3.3 WSW 6 7 3 4 1015.6 1014.8 0.0
23/07:00am 13.0 12.2 6.4 64 3.2 CALM 0 0 0 0 1015.2 1014.4 0.0
23/06:30am 13.3 12.0 6.2 62 3.4 WSW 2 6 1 3 1014.7 1013.9 0.0
23/06:00am 14.4 13.4 5.5 55 4.3 CALM 0 0 0 0 1014.3 1013.5 0.0
23/05:30am 14.1 13.1 5.7 57 4.0 CALM 0 0 0 0 1014.1 1013.3 0.0
23/05:00am 15.1 14.0 5.0 51 4.8 CALM 0 0 0 0 1013.8 1013.0 0.0
23/04:30am 16.5 15.4 4.9 46 5.6 CALM 0 0 0 0 1013.5 1012.6 0.0
23/04:00am 18.0 16.7 3.9 39 6.7 CALM 0 7 0 4 1013.2 1012.3 0.0
23/03:30am 19.7 15.8 3.4 34 7.8 W 13 17 7 9 1012.9 1012.0 0.0
23/03:00am 20.3 15.9 2.6 31 8.3 W 15 19 8 10 1012.7 1011.8 0.0
23/02:30am 21.3 17.2 2.1 28 9.0 W 13 17 7 9 1012.4 1011.5 0.0
23/02:00am 22.0 18.1 3.2 29 9.1 W 13 20 7 11 1012.3 1011.4 0.0
23/01:30am 23.2 18.1 3.2 27 9.7 W 19 30 10 16 1012.2 1011.3 0.0
23/01:00am 23.7 20.7 6.0 32 9.1 W 11 17 6 9 1012.1 1011.2 0.0
23/12:30am 24.8 20.3 6.1 30 9.7 W 19 30 10 16 1012.1 1011.2 0.0
23/12:00am 25.6 22.1 7.2 31 9.8 WSW 15 20 8 11 1011.7 1010.9 0.0
 
Date/Time
EDT
Temp
°C
App
Temp
°C
Dew
Point
°C
Rel
Hum
%
Delta-T
°C
Wind Press
QNH
hPa
Press
MSL
hPa
Rain since
9am
mm
Dir  Spd
km/h
Gust
km/h
Spd
kts
Gust
kts
22/11:30pm 26.2 22.0 5.7 27 10.7 W 17 24 9 13 1011.4 1010.6 0.0
22/11:00pm 25.6 20.7 2.3 22 11.4 WNW 17 26 9 14 1011.1 1010.3 0.0
22/10:30pm 23.1 20.6 3.6 28 9.6 NE 6 9 3 5 1010.0 1009.2 0.0
22/10:00pm 26.5 23.2 2.4 21 11.8 N 9 13 5 7 1010.1 1009.3 0.0
22/09:30pm 24.4 21.6 3.1 25 10.4 N 7 9 4 5 1009.9 1009.1 0.0
22/09:00pm 27.5 24.8 2.6 20 12.4 N 6 11 3 6 1009.7 1008.9 0.0
22/08:30pm 30.2 26.2 0.7 15 14.4 N 11 13 6 7 1009.5 1008.6 0.0
22/08:00pm 31.3 26.4 -0.4 13 15.3 N 15 22 8 12 1009.2 1008.3 0.0
22/07:30pm 32.4 25.8 -0.6 12 16.0 N 24 37 13 20 1009.1 1008.2 0.0
22/07:00pm 33.0 24.7 -1.4 11 16.6 N 32 43 17 23 1009.2 1008.3 0.0
22/06:30pm 33.3 26.6 -1.1 11 16.7 NNW 24 39 13 21 1009.3 1008.4 0.0
22/06:00pm 33.2 25.7 -1.2 11 16.6 NNW 28 37 15 20 1009.5 1008.6 0.0
22/05:43pm 33.3 25.8 -1.1 11 16.7 NNW 28 48 15 26 1009.4 1008.5 0.0
22/05:30pm 33.3 25.8 -1.1 11 16.7 N 28 37 15 20 1009.5 1008.6 0.0
22/05:00pm 32.9 25.4 -1.4 11 16.5 N 28 46 15 25 1009.9 1009.1 0.0
22/04:52pm 32.2 24.8 -0.8 12 15.9 N 28 46 15 25 1010.1 1009.3 0.0
22/04:30pm 33.2 25.3 -1.2 11 16.6 NNW 30 46 16 25 1010.2 1009.4 0.0
22/04:09pm 32.4 25.0 -0.6 12 16.0 NNW 28 46 15 25 1010.4 1009.6 0.0
22/04:00pm 32.1 23.7 -0.9 12 15.9 N 33 46 18 25 1010.7 1009.9 0.0
22/03:30pm 32.5 24.2 -0.5 12 16.0 N 33 54 18 29 1011.0 1010.2 0.0
22/03:05pm 32.2 24.4 -0.8 12 15.9 N 30 52 16 28 1011.0 1010.2 0.0
22/03:00pm 31.6 23.9 -0.1 13 15.4 N 30 46 16 25 1011.4 1010.6 0.0
22/02:31pm 30.8 23.4 -0.8 13 15.1 NNW 28 46 15 25 1012.5 1011.6 0.0
22/02:30pm 31.2 23.8 -0.5 13 15.3 NNW 28 41 15 22 1012.5 1011.6 0.0
22/02:00pm 31.2 24.7 0.6 14 15.0 N 24 37 13 20 1012.9 1012.0 0.0
22/01:30pm 30.2 22.2 0.7 15 14.4 NNE 32 44 17 24 1013.2 1012.3 0.0
22/01:00pm 29.2 22.5 1.7 17 13.6 N 26 39 14 21 1013.9 1013.1 0.0
22/12:41pm 28.3 21.5 3.2 20 12.6 NNE 28 50 15 27 1014.5 1013.7 0.0
22/12:30pm 27.8 21.5 3.5 21 12.3 N 26 39 14 21 1014.7 1013.9 0.0
22/12:00pm 27.3 21.1 4.4 23 11.7 N 26 35 14 19 1015.0 1014.2 0.0
22/11:30am 26.3 20.3 5.3 26 10.8 N 26 39 14 21 1015.4 1014.6 0.0
22/11:00am 24.8 19.3 6.1 30 9.7 NNE 24 35 13 19 1016.0 1015.2 0.0
22/10:30am 23.9 19.6 7.9 36 8.5 NE 20 32 11 17 1016.1 1015.3 0.0
22/10:00am 21.8 17.7 8.0 41 7.3 NE 19 28 10 15 1016.4 1015.6 0.0
22/09:30am 19.8 15.4 6.5 42 6.7 NE 19 26 10 14 1016.4 1015.6 0.0
22/09:00am 18.2 14.8 6.1 45 6.0 NE 13 20 7 11 1016.7 1015.9 0.0
22/08:30am 16.4 13.2 5.1 47 5.4 E 11 17 6 9 1016.5 1015.7 0.0
22/08:00am 15.4 12.9 5.0 50 5.0 ESE 7 9 4 5 1016.5 1015.7 0.0
22/07:59am 15.2 12.7 4.9 50 4.9 E 7 11 4 6 1016.5 1015.7 0.0
22/07:38am 12.4 10.0 5.3 62 3.3 SE 7 9 4 5 1016.3 1015.5 0.0
22/07:30am 11.6 8.7 4.8 63 3.1 SE 9 11 5 6 1016.2 1015.4 0.0
22/07:00am 11.1 7.3 4.1 62 3.2 SSE 13 13 7 7 1016.2 1015.4 0.0
22/06:30am 11.5 8.9 4.0 60 3.4 SSE 7 9 4 5 1015.7 1014.9 0.0
22/06:00am 11.6 9.0 4.1 60 3.4 SE 7 9 4 5 1015.6 1014.8 0.0
22/05:30am 11.6 8.9 3.9 59 3.5 SE 7 11 4 6 1015.7 1014.9 0.0
22/05:00am 12.0 8.2 4.0 58 3.6 SSE 13 15 7 8 1015.6 1014.8 0.0
22/04:30am 12.1 8.7 4.1 58 3.6 SE 11 15 6 8 1015.7 1014.9 0.0
22/04:00am 13.0 10.5 3.7 53 4.2 SSE 6 9 3 5 1016.0 1015.2 0.0
22/03:30am 12.3 9.6 3.8 56 3.9 S 7 9 4 5 1016.3 1015.5 0.0
22/03:00am 11.0 9.0 4.2 63 3.1 SSE 4 7 2 4 1016.6 1015.8 0.0
22/02:30am 11.5 9.1 4.3 61 3.3 SSE 6 7 3 4 1016.7 1015.9 0.0
22/02:00am 11.7 9.3 4.2 60 3.4 SSE 6 7 3 4 1017.1 1016.2 0.0
22/01:30am 12.4 10.0 4.1 57 3.8 S 6 7 3 4 1017.4 1016.5 0.0
22/01:00am 12.6 11.5 5.3 61 3.4 CALM 0 0 0 0 1017.7 1016.8 0.0
22/12:30am 12.9 11.2 4.1 55 4.0 S 2 6 1 3 1017.9 1017.0 0.0
22/12:00am 13.9 11.8 3.7 50 4.7 S 4 7 2 4 1018.3 1017.5 0.0
 
Date/Time
EDT
Temp
°C
App
Temp
°C
Dew
Point
°C
Rel
Hum
%
Delta-T
°C
Wind Press
QNH
hPa
Press
MSL
hPa
Rain since
9am
mm
Dir  Spd
km/h
Gust
km/h
Spd
kts
Gust
kts
21/11:30pm 15.0 12.4 4.4 49 5.0 SSE 7 9 4 5 1018.4 1017.6 0.0
21/11:00pm 14.3 13.2 4.9 53 4.4 CALM 0 0 0 0 1018.4 1017.6 0.0
21/10:30pm 14.7 13.5 4.7 51 4.7 CALM 0 0 0 0 1018.2 1017.4 0.0
21/10:00pm 16.3 14.5 3.7 43 5.9 ESE 2 7 1 4 1018.2 1017.4 0.0
21/09:30pm 16.7 15.6 5.0 46 5.6 CALM 0 0 0 0 1018.2 1017.4 0.0
21/09:00pm 18.6 15.9 3.6 37 7.1 ENE 7 9 4 5 1017.9 1017.0 0.0
21/08:30pm 20.3 17.6 3.5 33 8.1 ENE 7 9 4 5 1017.8 1016.9 0.0
21/08:00pm 23.2 19.9 2.7 26 9.9 NE 9 11 5 6 1017.5 1016.6 0.0
21/07:30pm 24.0 20.9 1.6 23 10.6 N 7 13 4 7 1017.3 1016.4 0.0
21/07:00pm 24.4 22.1 2.5 24 10.6 W 4 15 2 8 1017.4 1016.5 0.0
21/06:30pm 25.4 23.2 3.4 24 10.9 WSW 4 9 2 5 1017.4 1016.5 0.0
21/06:00pm 25.0 22.0 1.8 22 11.1 NW 7 13 4 7 1017.3 1016.4 0.0
21/05:30pm 24.5 21.8 2.6 24 10.6 NNW 6 13 3 7 1017.4 1016.5 0.0
21/05:00pm 24.8 22.0 2.3 23 10.9 SSW 6 9 3 5 1017.9 1017.0 0.0
21/04:30pm 24.6 21.6 2.1 23 10.8 N 7 15 4 8 1018.1 1017.3 0.0
21/04:00pm 24.3 21.4 2.5 24 10.5 SW 7 11 4 6 1018.4 1017.6 0.0
21/03:30pm 24.1 21.4 2.9 25 10.3 NNW 6 15 3 8 1018.7 1017.9 0.0
21/03:00pm 23.3 20.7 3.3 27 9.7 SE 6 11 3 6 1019.1 1018.3 0.0
21/02:30pm 22.8 19.4 3.9 29 9.3 W 11 22 6 12 1019.4 1018.6 0.0
21/02:00pm 22.7 19.7 4.2 30 9.1 NNE 9 15 5 8 1019.8 1019.0 0.0
21/01:30pm 22.0 18.8 3.2 29 9.1 WSW 9 17 5 9 1020.2 1019.4 0.0
21/01:00pm 21.8 17.5 3.5 30 8.8 SW 15 20 8 11 1020.5 1019.7 0.0
21/12:30pm 20.8 17.8 4.0 33 8.2 WNW 9 17 5 9 1020.9 1020.1 0.0
21/12:00pm 19.8 17.2 4.3 36 7.5 WNW 7 13 4 7 1021.3 1020.5 0.0
21/11:30am 18.8 15.7 3.8 37 7.2 NW 9 17 5 9 1021.4 1020.6 0.0
21/11:00am 18.7 16.6 5.9 43 6.3 NE 6 11 3 6 1021.6 1020.8 0.0
21/10:30am 17.1 15.2 4.8 44 5.9 NNW 4 9 2 5 1021.9 1021.0 0.0
21/10:00am 16.6 14.6 6.1 50 5.1 E 6 9 3 5 1022.0 1021.1 0.0
21/09:30am 15.0 13.3 5.8 54 4.4 ENE 4 9 2 5 1021.6 1020.8 0.0
21/09:00am 13.5 11.3 6.1 61 3.5 SE 7 11 4 6 1021.3 1020.5 0.0
21/08:30am 11.7 9.3 7.0 73 2.3 SSE 9 15 5 8 1021.2 1020.4 0.0
21/08:00am 9.3 7.4 6.9 85 1.1 S 6 9 3 5 1020.7 1019.9 0.0
21/07:30am 7.3 6.3 5.4 88 0.9 CALM 0 6 0 3 1020.3 1019.5 0.0
21/07:00am 6.2 3.8 4.5 89 0.7 S 6 6 3 3 1020.1 1019.3 0.0
21/06:30am 6.1 3.7 4.3 88 0.8 S 6 7 3 4 1019.6 1018.8 0.0
21/06:00am 6.4 4.5 4.7 89 0.7 S 4 7 2 4 1019.4 1018.6 0.0
21/05:30am 5.8 4.5 4.1 89 0.7 CALM 0 4 0 2 1019.3 1018.5 0.0
21/05:00am 6.3 3.8 4.5 88 0.8 S 7 9 4 5 1019.1 1018.3 0.0
21/04:30am 7.2 6.1 4.9 85 1.0 CALM 0 0 0 0 1019.1 1018.3 0.0
21/04:00am 7.1 4.8 4.6 84 1.1 S 6 7 3 4 1019.1 1018.3 0.0
21/03:30am 7.5 6.4 5.0 84 1.1 CALM 0 6 0 3 1019.1 1018.3 0.0
21/03:00am 7.3 6.1 4.8 84 1.1 CALM 0 0 0 0 1018.7 1017.9 0.0
21/02:30am 7.6 6.4 4.6 81 1.3 CALM 0 0 0 0 1018.8 1018.0 0.0
21/02:00am 8.2 7.0 4.8 79 1.5 CALM 0 0 0 0 1018.9 1018.1 0.0
21/01:30am 9.1 8.0 4.9 75 1.9 CALM 0 0 0 0 1019.1 1018.3 0.0
21/01:00am 10.0 8.9 5.0 71 2.3 CALM 0 0 0 0 1019.2 1018.4 0.0
21/12:30am 10.8 8.3 4.7 66 2.8 SSE 7 9 4 5 1018.8 1018.0 0.0
21/12:00am 11.6 8.7 4.8 63 3.1 S 9 13 5 7 1018.7 1017.9 0.0
 
Date/Time
EDT
Temp
°C
App
Temp
°C
Dew
Point
°C
Rel
Hum
%
Delta-T
°C
Wind Press
QNH
hPa
Press
MSL
hPa
Rain since
9am
mm
Dir  Spd
km/h
Gust
km/h
Spd
kts
Gust
kts
20/11:30pm 12.5 9.7 5.0 60 3.5 SSE 9 11 5 6 1018.7 1017.9 0.0
20/11:00pm 13.2 10.0 4.9 57 3.9 S 11 15 6 8 1018.6 1017.8 0.0
20/10:30pm 13.0 10.5 4.7 57 3.9 SSW 7 9 4 5 1018.4 1017.6 0.0
20/10:00pm 15.2 12.6 4.3 48 5.1 S 7 11 4 6 1018.0 1017.2 0.0
20/09:30pm 15.1 12.4 3.9 47 5.2 SSW 7 11 4 6 1017.7 1016.8 0.0
20/09:00pm 15.9 12.6 4.6 47 5.4 SW 11 17 6 9 1017.1 1016.2 0.0
20/08:30pm 17.0 12.8 4.0 42 6.1 SW 15 22 8 12 1016.5 1015.7 0.0
20/08:00pm 18.0 13.8 3.9 39 6.7 SW 15 28 8 15 1015.9 1015.1 0.0
20/07:30pm 18.9 14.6 3.5 36 7.3 SSW 15 24 8 13 1015.5 1014.7 0.0
20/07:00pm 19.5 14.4 3.2 34 7.7 SSW 19 26 10 14 1015.1 1014.3 0.0
20/06:30pm 19.9 14.9 3.6 34 7.8 SW 19 30 10 16 1014.8 1014.0 0.0
20/06:00pm 20.0 15.0 3.7 34 7.8 SSW 19 26 10 14 1014.6 1013.8 0.0
20/05:30pm 20.5 15.3 3.3 32 8.2 SW 20 30 11 16 1014.3 1013.5 0.0
20/05:00pm 21.5 15.6 3.7 31 8.6 SW 24 37 13 20 1014.1 1013.3 0.0
20/04:30pm 21.1 16.0 4.2 33 8.3 SW 20 32 11 17 1014.0 1013.2 0.0
20/04:00pm 19.9 14.9 4.4 36 7.5 W 20 33 11 18 1013.8 1013.0 0.0
20/03:30pm 19.9 14.9 4.8 37 7.4 SW 20 32 11 17 1013.9 1013.1 0.0
20/03:00pm 20.1 15.0 4.2 35 7.7 WSW 20 32 11 17 1014.0 1013.2 0.0
20/02:30pm 19.4 13.7 4.7 38 7.2 W 24 35 13 19 1014.2 1013.4 0.0
20/02:00pm 18.8 13.0 4.6 39 6.9 W 24 32 13 17 1014.3 1013.5 0.0
20/01:30pm 18.2 13.0 5.4 43 6.3 W 22 33 12 18 1014.5 1013.7 0.0

Other Formats:

Comma delimited format used in spreadsheet applications
http://www.bom.gov.au/fwo/IDV60801/IDV60801.94855.axf

JavaScript Object Notation format (JSON) in row-major order
http://www.bom.gov.au/fwo/IDV60801/IDV60801.94855.json